createdAt,value
2016-06-16T00:00:08.303Z,105204.6
2016-06-16T00:00:18.334Z,105204.6
2016-06-16T00:00:28.303Z,106932
2016-06-16T00:00:38.412Z,106932
2016-06-16T00:00:48.318Z,106932
2016-06-16T00:00:58.322Z,105204.6
2016-06-16T00:01:08.338Z,105204.6
2016-06-16T00:01:18.416Z,103285.6
2016-06-16T00:01:28.416Z,103285.6
2016-06-16T00:01:38.354Z,101558.6
2016-06-16T00:01:48.354Z,101558.6
2016-06-16T00:01:58.372Z,101558.6
2016-06-16T00:02:08.435Z,101558.6
2016-06-16T00:02:18.419Z,99831.9
2016-06-16T00:02:28.372Z,101558.6
2016-06-16T00:02:38.419Z,99831.9
2016-06-16T00:02:48.450Z,99831.9
2016-06-16T00:02:58.500Z,98105.2
2016-06-16T00:03:08.391Z,98105.2
2016-06-16T00:03:18.485Z,98105.2
2016-06-16T00:03:28.438Z,98105.2
2016-06-16T00:03:38.438Z,99831.9
2016-06-16T00:03:48.438Z,98105.2
2016-06-16T00:03:58.471Z,98105.2
2016-06-16T00:04:08.471Z,98105.2
2016-06-16T00:04:18.502Z,98105.2
2016-06-16T00:04:28.455Z,98105.2
2016-06-16T00:04:38.471Z,98105.2
2016-06-16T00:04:48.471Z,98105.2
2016-06-16T00:04:58.474Z,98105.2
2016-06-16T00:05:08.474Z,96570.7
2016-06-16T00:05:18.521Z,98105.2
2016-06-16T00:05:28.505Z,99831.9
2016-06-16T00:05:38.505Z,101558.6
2016-06-16T00:05:48.505Z,103285.6
2016-06-16T00:05:58.540Z,103285.6
2016-06-16T00:06:08.525Z,103285.6
2016-06-16T00:06:18.525Z,103285.6
2016-06-16T00:06:28.540Z,103285.6
2016-06-16T00:06:38.540Z,101558.6
2016-06-16T00:06:48.540Z,101558.6
2016-06-16T00:06:58.543Z,101558.6
2016-06-16T00:07:08.543Z,99831.9
2016-06-16T00:07:18.559Z,101558.6
2016-06-16T00:07:28.575Z,103285.6
2016-06-16T00:07:38.575Z,103285.6
2016-06-16T00:07:48.575Z,103285.6
2016-06-16T00:07:58.578Z,103285.6
2016-06-16T00:08:08.593Z,105204.6
2016-06-16T00:08:18.640Z,103285.6
2016-06-16T00:08:29.015Z,103285.6
2016-06-16T00:08:38.718Z,103285.6
2016-06-16T00:08:48.625Z,101558.6
2016-06-16T00:08:58.612Z,101558.6
2016-06-16T00:09:08.690Z,101558.6
2016-06-16T00:09:18.659Z,99831.9
2016-06-16T00:09:28.643Z,99831.9
2016-06-16T00:09:38.674Z,99831.9
2016-06-16T00:09:48.706Z,98105.2
2016-06-16T00:09:58.724Z,96570.7
2016-06-16T00:10:08.693Z,98105.2
2016-06-16T00:10:18.693Z,96570.7
2016-06-16T00:10:28.552Z,96570.7
2016-06-16T00:10:38.631Z,98105.2
2016-06-16T00:10:49.365Z,98105.2
2016-06-16T00:10:58.743Z,96570.7
2016-06-16T00:11:09.368Z,98105.2
2016-06-16T00:11:19.040Z,98105.2
2016-06-16T00:11:28.712Z,98105.2
2016-06-16T00:11:38.743Z,96570.7
2016-06-16T00:11:48.743Z,96570.7
2016-06-16T00:11:58.746Z,98105.2
2016-06-16T00:12:08.746Z,98105.2
2016-06-16T00:12:18.762Z,99831.9
2016-06-16T00:12:28.793Z,98105.2
2016-06-16T00:12:38.762Z,98105.2
2016-06-16T00:12:48.762Z,96570.7
2016-06-16T00:12:58.812Z,96570.7
2016-06-16T00:13:08.781Z,96570.7
2016-06-16T00:13:18.797Z,98105.2
2016-06-16T00:13:28.797Z,98105.2
2016-06-16T00:13:38.797Z,98105.2
2016-06-16T00:13:48.859Z,99831.9
2016-06-16T00:13:58.830Z,101558.6
2016-06-16T00:14:08.814Z,103285.6
2016-06-16T00:14:18.830Z,105204.6
2016-06-16T00:14:28.846Z,106932
2016-06-16T00:14:38.830Z,106932
2016-06-16T00:14:48.846Z,106932
2016-06-16T00:14:59.177Z,106932
2016-06-16T00:15:08.864Z,105204.6
2016-06-16T00:15:18.864Z,105204.6
2016-06-16T00:15:28.880Z,105204.6
2016-06-16T00:15:38.942Z,103285.6
2016-06-16T00:15:48.880Z,103285.6
2016-06-16T00:15:58.931Z,101558.6
2016-06-16T00:16:08.900Z,101558.6
2016-06-16T00:16:18.946Z,73574.5
2016-06-16T00:16:28.931Z,99831.9
2016-06-16T00:16:38.978Z,99831.9
2016-06-16T00:16:48.931Z,98105.2
2016-06-16T00:16:58.996Z,98105.2
2016-06-16T00:17:08.949Z,98105.2
2016-06-16T00:17:18.949Z,98105.2
2016-06-16T00:17:28.934Z,98105.2
2016-06-16T00:17:38.965Z,98105.2
2016-06-16T00:17:49.012Z,98105.2
2016-06-16T00:17:58.983Z,96570.7
2016-06-16T00:18:08.983Z,95036.3
2016-06-16T00:18:18.967Z,95036.3
2016-06-16T00:18:28.998Z,93502.1
2016-06-16T00:18:38.983Z,95036.3
2016-06-16T00:18:49.014Z,93502.1
2016-06-16T00:18:59.080Z,93502.1
2016-06-16T00:19:09.018Z,70511.8
2016-06-16T00:19:19.018Z,69554.9
2016-06-16T00:19:29.018Z,69554.9
2016-06-16T00:19:39.049Z,90625.9
2016-06-16T00:19:49.049Z,90625.9
2016-06-16T00:19:59.052Z,90625.9
2016-06-16T00:20:09.052Z,90625.9
2016-06-16T00:20:19.052Z,68789.5
2016-06-16T00:20:29.068Z,90625.9
2016-06-16T00:20:39.083Z,90625.9
2016-06-16T00:20:49.068Z,89092.3
2016-06-16T00:20:59.102Z,89092.3
2016-06-16T00:21:09.086Z,89092.3
2016-06-16T00:21:19.102Z,89092.3
2016-06-16T00:21:29.086Z,89092.3
2016-06-16T00:21:39.133Z,87750.4
2016-06-16T00:21:49.086Z,86408.8
2016-06-16T00:21:59.105Z,86408.8
2016-06-16T00:22:09.105Z,85258.8
2016-06-16T00:22:19.136Z,85258.8
2016-06-16T00:22:29.121Z,83917.4
2016-06-16T00:22:39.136Z,82767.7
2016-06-16T00:22:49.152Z,82767.7
2016-06-16T00:22:59.155Z,82767.7
2016-06-16T00:23:09.186Z,82767.7
2016-06-16T00:23:19.186Z,82767.7
2016-06-16T00:23:29.171Z,82767.7
2016-06-16T00:23:39.405Z,81426.6
2016-06-16T00:23:49.217Z,81426.6
2016-06-16T00:23:59.220Z,80277.2
2016-06-16T00:24:09.189Z,79127.8
2016-06-16T00:24:19.220Z,77021.1
2016-06-16T00:24:29.220Z,77021.1
2016-06-16T00:24:39.220Z,78170.1
2016-06-16T00:24:49.252Z,80277.2
2016-06-16T00:24:59.270Z,82767.7
2016-06-16T00:25:09.270Z,85258.8
2016-06-16T00:25:19.208Z,85258.8
2016-06-16T00:25:29.255Z,86408.8
2016-06-16T00:25:39.270Z,86408.8
2016-06-16T00:25:49.395Z,86408.8
2016-06-16T00:25:59.367Z,87750.4
2016-06-16T00:26:09.289Z,89092.3
2016-06-16T00:26:19.367Z,89092.3
2016-06-16T00:26:29.289Z,90625.9
2016-06-16T00:26:39.305Z,90625.9
2016-06-16T00:26:49.289Z,90625.9
2016-06-16T00:26:59.323Z,89092.3
2016-06-16T00:27:09.308Z,89092.3
2016-06-16T00:27:19.308Z,87750.4
2016-06-16T00:27:29.308Z,89092.3
2016-06-16T00:27:39.323Z,90625.9
2016-06-16T00:27:49.370Z,69554.9
2016-06-16T00:27:59.342Z,91968.1
2016-06-16T00:28:09.342Z,91968.1
2016-06-16T00:28:19.342Z,91968.1
2016-06-16T00:28:29.373Z,69554.9
2016-06-16T00:28:39.357Z,91968.1
2016-06-16T00:28:49.357Z,91968.1
2016-06-16T00:28:59.376Z,71468.8
2016-06-16T00:29:09.392Z,71468.8
2016-06-16T00:29:19.392Z,70511.8
2016-06-16T00:29:29.392Z,70511.8
2016-06-16T00:29:39.407Z,95036.3
2016-06-16T00:29:49.392Z,95036.3
2016-06-16T00:29:59.427Z,95036.3
2016-06-16T00:30:09.427Z,95036.3
2016-06-16T00:30:19.443Z,95036.3
2016-06-16T00:30:29.505Z,95036.3
2016-06-16T00:30:39.443Z,95036.3
2016-06-16T00:30:49.505Z,95036.3
2016-06-16T00:30:59.539Z,95036.3
2016-06-16T00:31:09.508Z,95036.3
2016-06-16T00:31:19.305Z,95036.3
2016-06-16T00:31:29.477Z,95036.3
2016-06-16T00:31:39.477Z,96570.7
2016-06-16T00:31:49.492Z,96570.7
2016-06-16T00:31:59.480Z,95036.3
2016-06-16T00:32:09.511Z,96570.7
2016-06-16T00:32:19.542Z,95036.3
2016-06-16T00:32:29.355Z,96570.7
2016-06-16T00:32:39.542Z,96570.7
2016-06-16T00:32:49.511Z,98105.2
2016-06-16T00:32:59.529Z,99831.9
2016-06-16T00:33:09.560Z,101558.6
2016-06-16T00:33:19.529Z,101558.6
2016-06-16T00:33:29.576Z,103285.6
2016-06-16T00:33:39.560Z,103285.6
2016-06-16T00:33:49.560Z,103285.6
2016-06-16T00:33:59.580Z,103285.6
2016-06-16T00:34:09.564Z,103285.6
2016-06-16T00:34:19.580Z,103285.6
2016-06-16T00:34:29.580Z,105204.6
2016-06-16T00:34:39.611Z,105204.6
2016-06-16T00:34:49.580Z,105204.6
2016-06-16T00:34:59.598Z,106932
2016-06-16T00:35:09.629Z,105204.6
2016-06-16T00:35:19.629Z,105204.6
2016-06-16T00:35:29.629Z,103285.6
2016-06-16T00:35:39.676Z,103285.6
2016-06-16T00:35:49.629Z,105204.6
2016-06-16T00:35:59.632Z,105204.6
2016-06-16T00:36:09.664Z,103285.6
2016-06-16T00:36:19.664Z,101558.6
2016-06-16T00:36:29.664Z,103285.6
2016-06-16T00:36:39.664Z,105204.6
2016-06-16T00:36:49.679Z,106932
2016-06-16T00:36:59.698Z,106932
2016-06-16T00:37:09.714Z,108851.6
2016-06-16T00:37:19.698Z,108851.6
2016-06-16T00:37:29.714Z,108851.6
2016-06-16T00:37:39.698Z,108851.6
2016-06-16T00:37:49.698Z,108851.6
2016-06-16T00:37:59.717Z,108851.6
2016-06-16T00:38:09.748Z,108851.6
2016-06-16T00:38:19.732Z,106932
2016-06-16T00:38:29.732Z,108851.6
2016-06-16T00:38:39.732Z,108851.6
2016-06-16T00:38:49.763Z,108851.6
2016-06-16T00:38:59.751Z,108851.6
2016-06-16T00:39:09.751Z,108851.6
2016-06-16T00:39:19.766Z,108851.6
2016-06-16T00:39:29.782Z,106932
2016-06-16T00:39:39.782Z,105204.6
2016-06-16T00:39:49.766Z,105204.6
2016-06-16T00:39:59.785Z,103285.6
2016-06-16T00:40:09.801Z,105204.6
2016-06-16T00:40:20.176Z,108851.6
2016-06-16T00:40:29.816Z,108851.6
2016-06-16T00:40:40.098Z,108851.6
2016-06-16T00:40:49.723Z,108851.6
2016-06-16T00:41:10.305Z,108851.6
2016-06-16T00:41:19.695Z,108851.6
2016-06-16T00:41:29.711Z,110963.4
2016-06-16T00:41:39.852Z,110963.4
2016-06-16T00:41:49.852Z,113075.5
2016-06-16T00:41:59.869Z,115187.8
2016-06-16T00:42:09.869Z,115187.8
2016-06-16T00:42:19.885Z,117492.4
2016-06-16T00:42:29.885Z,115187.8
2016-06-16T00:42:39.900Z,115187.8
2016-06-16T00:42:49.885Z,115187.8
2016-06-16T00:42:59.919Z,115187.8
2016-06-16T00:43:09.903Z,115187.8
2016-06-16T00:43:19.919Z,113075.5
2016-06-16T00:43:29.903Z,115187.8
2016-06-16T00:43:39.919Z,115187.8
2016-06-16T00:43:49.935Z,115187.8
2016-06-16T00:43:59.954Z,117492.4
2016-06-16T00:44:09.970Z,81809.7
2016-06-16T00:44:19.954Z,119797.5
2016-06-16T00:44:29.954Z,119797.5
2016-06-16T00:44:40.017Z,117492.4
2016-06-16T00:44:49.970Z,117492.4
2016-06-16T00:45:00.020Z,117492.4
2016-06-16T00:45:09.989Z,115187.8
2016-06-16T00:45:20.004Z,115187.8
2016-06-16T00:45:40.004Z,115187.8
2016-06-16T00:46:00.022Z,117492.4
2016-06-16T00:46:20.022Z,119797.5
2016-06-16T00:46:30.037Z,119797.5
2016-06-16T00:46:40.100Z,119797.5
2016-06-16T00:46:50.053Z,117492.4
2016-06-16T00:47:00.057Z,115187.8
2016-06-16T00:47:10.088Z,113075.5
2016-06-16T00:47:20.073Z,110963.4
2016-06-16T00:47:30.401Z,108851.6
2016-06-16T00:47:40.104Z,108851.6
2016-06-16T00:47:50.073Z,108851.6
2016-06-16T00:48:00.091Z,108851.6
2016-06-16T00:48:10.138Z,108851.6
2016-06-16T00:48:20.091Z,108851.6
2016-06-16T00:48:30.091Z,110963.4
2016-06-16T00:48:40.123Z,110963.4
2016-06-16T00:48:50.138Z,113075.5
2016-06-16T00:49:00.126Z,113075.5
2016-06-16T00:49:10.454Z,113075.5
2016-06-16T00:49:20.141Z,113075.5
2016-06-16T00:49:30.172Z,110963.4
2016-06-16T00:49:40.141Z,110963.4
2016-06-16T00:49:50.157Z,110963.4
2016-06-16T00:50:00.160Z,110963.4
2016-06-16T00:50:10.191Z,113075.5
2016-06-16T00:50:20.175Z,113075.5
2016-06-16T00:50:30.191Z,113075.5
2016-06-16T00:50:40.175Z,113075.5
2016-06-16T00:50:50.207Z,113075.5
2016-06-16T00:51:00.194Z,113075.5
2016-06-16T00:51:10.241Z,113075.5
2016-06-16T00:51:20.225Z,113075.5
2016-06-16T00:51:30.272Z,113075.5
2016-06-16T00:51:40.241Z,113075.5
2016-06-16T00:51:50.257Z,113075.5
2016-06-16T00:52:00.244Z,110963.4
2016-06-16T00:52:10.275Z,108851.6
2016-06-16T00:52:20.244Z,108851.6
2016-06-16T00:52:30.306Z,108851.6
2016-06-16T00:52:40.260Z,108851.6
2016-06-16T00:52:50.291Z,108851.6
2016-06-16T00:53:00.294Z,106932
2016-06-16T00:53:10.325Z,105204.6
2016-06-16T00:53:20.325Z,105204.6
2016-06-16T00:53:30.325Z,105204.6
2016-06-16T00:53:40.309Z,103285.6
2016-06-16T00:53:50.341Z,103285.6
2016-06-16T00:54:00.328Z,103285.6
2016-06-16T00:54:10.328Z,101558.6
2016-06-16T00:54:20.312Z,99831.9
2016-06-16T00:54:30.328Z,99831.9
2016-06-16T00:54:40.359Z,99831.9
2016-06-16T00:54:50.375Z,98105.2
2016-06-16T00:55:00.395Z,98105.2
2016-06-16T00:55:10.363Z,96570.7
2016-06-16T00:55:20.395Z,95036.3
2016-06-16T00:55:31.020Z,93502.1
2016-06-16T00:55:40.504Z,93502.1
2016-06-16T00:55:50.238Z,93502.1
2016-06-16T00:56:00.381Z,95036.3
2016-06-16T00:56:10.615Z,96570.7
2016-06-16T00:56:20.803Z,95036.3
2016-06-16T00:56:30.490Z,95036.3
2016-06-16T00:56:40.459Z,93502.1
2016-06-16T00:56:50.678Z,93502.1
2016-06-16T00:57:00.447Z,93502.1
2016-06-16T00:57:10.432Z,93502.1
2016-06-16T00:57:20.541Z,93502.1
2016-06-16T00:57:30.479Z,91968.1
2016-06-16T00:57:40.729Z,93502.1
2016-06-16T00:57:50.463Z,91968.1
2016-06-16T00:58:00.560Z,91968.1
2016-06-16T00:58:10.544Z,91968.1
2016-06-16T00:58:20.544Z,90625.9
2016-06-16T00:58:30.497Z,90625.9
2016-06-16T00:58:40.544Z,91968.1
2016-06-16T00:58:50.497Z,90625.9
2016-06-16T00:59:00.547Z,90625.9
2016-06-16T00:59:10.500Z,90625.9
2016-06-16T00:59:20.563Z,89092.3
2016-06-16T00:59:30.563Z,68789.5
2016-06-16T00:59:40.547Z,90625.9
2016-06-16T00:59:50.532Z,68789.5
2016-06-16T01:00:00.549Z,90625.9
2016-06-16T01:00:10.580Z,90625.9
2016-06-16T01:00:20.565Z,90625.9
2016-06-16T01:00:30.565Z,90625.9
2016-06-16T01:00:40.565Z,89092.3
2016-06-16T01:00:50.596Z,89092.3
2016-06-16T01:01:00.600Z,87750.4
2016-06-16T01:01:10.866Z,89092.3
2016-06-16T01:01:20.600Z,89092.3
2016-06-16T01:01:30.616Z,89092.3
2016-06-16T01:01:40.600Z,89092.3
2016-06-16T01:01:50.600Z,89092.3
2016-06-16T01:02:00.619Z,89092.3
2016-06-16T01:02:10.634Z,87750.4
2016-06-16T01:02:20.650Z,89092.3
2016-06-16T01:02:31.009Z,89092.3
2016-06-16T01:02:40.634Z,87750.4
2016-06-16T01:02:50.634Z,87750.4
2016-06-16T01:03:00.653Z,87750.4
2016-06-16T01:03:10.747Z,87750.4
2016-06-16T01:03:20.669Z,86408.8
2016-06-16T01:03:30.700Z,86408.8
2016-06-16T01:03:40.684Z,85258.8
2016-06-16T01:03:50.731Z,85258.8
2016-06-16T01:04:00.797Z,85258.8
2016-06-16T01:04:10.750Z,85258.8
2016-06-16T01:04:20.703Z,86408.8
2016-06-16T01:04:30.828Z,87750.4
2016-06-16T01:04:40.750Z,87750.4
2016-06-16T01:04:50.750Z,87750.4
2016-06-16T01:05:00.737Z,89092.3
2016-06-16T01:05:10.815Z,89092.3
2016-06-16T01:05:20.753Z,89092.3
2016-06-16T01:05:30.768Z,89092.3
2016-06-16T01:05:40.753Z,89092.3
2016-06-16T01:05:50.768Z,90625.9
2016-06-16T01:06:00.803Z,91968.1
2016-06-16T01:06:10.787Z,91968.1
2016-06-16T01:06:20.787Z,93502.1
2016-06-16T01:06:30.787Z,93502.1
2016-06-16T01:06:40.803Z,93502.1
2016-06-16T01:06:50.818Z,93502.1
2016-06-16T01:07:00.821Z,93502.1
2016-06-16T01:07:10.806Z,91968.1
2016-06-16T01:07:20.837Z,90625.9
2016-06-16T01:07:30.821Z,90625.9
2016-06-16T01:07:40.821Z,89092.3
2016-06-16T01:07:50.837Z,90625.9
2016-06-16T01:08:00.872Z,90625.9
2016-06-16T01:08:10.856Z,89092.3
2016-06-16T01:08:21.169Z,87750.4
2016-06-16T01:08:30.856Z,87750.4
2016-06-16T01:08:40.856Z,89092.3
2016-06-16T01:08:50.856Z,90625.9
2016-06-16T01:09:00.890Z,91968.1
2016-06-16T01:09:10.874Z,93502.1
2016-06-16T01:09:20.874Z,93502.1
2016-06-16T01:09:30.890Z,93502.1
2016-06-16T01:09:40.827Z,95036.3
2016-06-16T01:09:50.812Z,95036.3
2016-06-16T01:10:00.987Z,96570.7
2016-06-16T01:10:10.800Z,95036.3
2016-06-16T01:10:21.034Z,96570.7
2016-06-16T01:10:31.112Z,96570.7
2016-06-16T01:10:41.597Z,96570.7
2016-06-16T01:10:51.003Z,96570.7
2016-06-16T01:11:00.834Z,95036.3
2016-06-16T01:11:10.975Z,95036.3
2016-06-16T01:11:22.162Z,95036.3
2016-06-16T01:11:31.397Z,95036.3
2016-06-16T01:11:40.819Z,95036.3
2016-06-16T01:11:51.147Z,95036.3
2016-06-16T01:12:00.837Z,93502.1
2016-06-16T01:12:10.868Z,93502.1
2016-06-16T01:12:21.072Z,90625.9
2016-06-16T01:12:31.025Z,91968.1
2016-06-16T01:12:40.884Z,93502.1
2016-06-16T01:12:50.868Z,95036.3
2016-06-16T01:13:01.074Z,95036.3
2016-06-16T01:13:11.152Z,96570.7
2016-06-16T01:13:21.058Z,96570.7
2016-06-16T01:13:30.995Z,95036.3
2016-06-16T01:13:41.167Z,96570.7
2016-06-16T01:13:50.964Z,95036.3
2016-06-16T01:14:00.921Z,95036.3
2016-06-16T01:14:10.953Z,95036.3
2016-06-16T01:14:21.078Z,95036.3
2016-06-16T01:14:31.140Z,95036.3
2016-06-16T01:14:41.093Z,93502.1
2016-06-16T01:14:51.140Z,93502.1
2016-06-16T01:15:01.159Z,93502.1
2016-06-16T01:15:11.174Z,93502.1
2016-06-16T01:15:21.284Z,93502.1
2016-06-16T01:15:30.893Z,93502.1
2016-06-16T01:15:41.190Z,93502.1
2016-06-16T01:15:50.924Z,93502.1
2016-06-16T01:16:01.240Z,93502.1
2016-06-16T01:16:11.084Z,93502.1
2016-06-16T01:16:21.162Z,95036.3
2016-06-16T01:16:31.162Z,95036.3
2016-06-16T01:16:41.177Z,96570.7
2016-06-16T01:16:51.162Z,95036.3
2016-06-16T01:17:01.180Z,96570.7
2016-06-16T01:17:11.212Z,95036.3
2016-06-16T01:17:21.196Z,95036.3
2016-06-16T01:17:31.196Z,95036.3
2016-06-16T01:17:41.196Z,93502.1
2016-06-16T01:17:51.258Z,93502.1
2016-06-16T01:18:01.230Z,93502.1
2016-06-16T01:18:11.246Z,93502.1
2016-06-16T01:18:21.277Z,93502.1
2016-06-16T01:18:31.246Z,70511.8
2016-06-16T01:18:41.246Z,93502.1
2016-06-16T01:18:51.230Z,71468.8
2016-06-16T01:19:01.327Z,93502.1
2016-06-16T01:19:11.280Z,95036.3
2016-06-16T01:19:21.311Z,95036.3
2016-06-16T01:19:31.280Z,72234.5
2016-06-16T01:19:41.280Z,96570.7
2016-06-16T01:19:51.296Z,72234.5
2016-06-16T01:20:01.300Z,73191.6
2016-06-16T01:20:11.315Z,98105.2
2016-06-16T01:20:21.347Z,73191.6
2016-06-16T01:20:31.331Z,98105.2
2016-06-16T01:20:41.331Z,96570.7
2016-06-16T01:20:51.347Z,98105.2
2016-06-16T01:21:01.349Z,96570.7
2016-06-16T01:21:11.333Z,96570.7
2016-06-16T01:21:21.349Z,96570.7
2016-06-16T01:21:31.349Z,96570.7
2016-06-16T01:21:41.364Z,96570.7
2016-06-16T01:21:51.364Z,96570.7
2016-06-16T01:22:01.367Z,96570.7
2016-06-16T01:22:11.383Z,98105.2
2016-06-16T01:22:21.383Z,96570.7
2016-06-16T01:22:31.383Z,96570.7
2016-06-16T01:22:41.398Z,96570.7
2016-06-16T01:22:51.383Z,96570.7
2016-06-16T01:23:01.417Z,95036.3
2016-06-16T01:23:11.401Z,95036.3
2016-06-16T01:23:21.417Z,95036.3
2016-06-16T01:23:31.417Z,93502.1
2016-06-16T01:23:41.276Z,93502.1
2016-06-16T01:23:51.448Z,91968.1
2016-06-16T01:24:01.436Z,91968.1
2016-06-16T01:24:11.451Z,91968.1
2016-06-16T01:24:21.451Z,91968.1
2016-06-16T01:24:31.483Z,90625.9
2016-06-16T01:24:41.451Z,90625.9
2016-06-16T01:24:51.483Z,89092.3
2016-06-16T01:25:01.487Z,87750.4
2016-06-16T01:25:11.487Z,87750.4
2016-06-16T01:25:21.518Z,86408.8
2016-06-16T01:25:31.549Z,86408.8
2016-06-16T01:25:41.502Z,86408.8
2016-06-16T01:25:51.830Z,85258.8
2016-06-16T01:26:01.521Z,85258.8
2016-06-16T01:26:11.630Z,83917.4
2016-06-16T01:26:21.708Z,83917.4
2016-06-16T01:26:32.130Z,82767.7
2016-06-16T01:26:41.536Z,82767.7
2016-06-16T01:26:51.552Z,81426.6
2016-06-16T01:27:01.571Z,81426.6
2016-06-16T01:27:11.571Z,80277.2
2016-06-16T01:27:21.555Z,79127.8
2016-06-16T01:27:31.571Z,79127.8
2016-06-16T01:27:41.586Z,78170.1
2016-06-16T01:27:51.633Z,78170.1
2016-06-16T01:28:01.588Z,78170.1
2016-06-16T01:28:11.604Z,78170.1
2016-06-16T01:28:21.604Z,78170.1
2016-06-16T01:28:31.620Z,78170.1
2016-06-16T01:28:41.635Z,77021.1
2016-06-16T01:28:51.620Z,77021.1
2016-06-16T01:29:01.639Z,76063.6
2016-06-16T01:29:11.639Z,76063.6
2016-06-16T01:29:21.655Z,74914.7
2016-06-16T01:29:31.655Z,74914.7
2016-06-16T01:29:41.655Z,74914.7
2016-06-16T01:29:51.670Z,73957.4
2016-06-16T01:30:01.673Z,73957.4
2016-06-16T01:30:11.658Z,73957.4
2016-06-16T01:30:21.705Z,73957.4
2016-06-16T01:30:31.689Z,73957.4
2016-06-16T01:30:41.689Z,74914.7
2016-06-16T01:30:51.752Z,76063.6
2016-06-16T01:31:01.708Z,76063.6
2016-06-16T01:31:11.708Z,76063.6
2016-06-16T01:31:21.739Z,76063.6
2016-06-16T01:31:31.739Z,77021.1
2016-06-16T01:31:41.723Z,78170.1
2016-06-16T01:31:51.755Z,78170.1
2016-06-16T01:32:01.789Z,79127.8
2016-06-16T01:32:11.804Z,80277.2
2016-06-16T01:32:21.758Z,79127.8
2016-06-16T01:32:31.758Z,79127.8
2016-06-16T01:32:41.758Z,80277.2
2016-06-16T01:32:51.836Z,81426.6
2016-06-16T01:33:01.776Z,81426.6
2016-06-16T01:33:11.792Z,81426.6
2016-06-16T01:33:21.807Z,80277.2
2016-06-16T01:33:31.839Z,80277.2
2016-06-16T01:33:41.792Z,79127.8
2016-06-16T01:33:51.807Z,79127.8
2016-06-16T01:34:01.826Z,79127.8
2016-06-16T01:34:11.889Z,78170.1
2016-06-16T01:34:21.670Z,79127.8
2016-06-16T01:34:31.842Z,79127.8
2016-06-16T01:34:41.842Z,79127.8
2016-06-16T01:34:51.842Z,78170.1
2016-06-16T01:35:01.860Z,78170.1
2016-06-16T01:35:11.860Z,78170.1
2016-06-16T01:35:21.860Z,78170.1
2016-06-16T01:35:31.876Z,78170.1
2016-06-16T01:35:41.876Z,79127.8
2016-06-16T01:35:51.876Z,79127.8
2016-06-16T01:36:01.895Z,79127.8
2016-06-16T01:36:11.910Z,80277.2
2016-06-16T01:36:21.895Z,80277.2
2016-06-16T01:36:31.910Z,80277.2
2016-06-16T01:36:41.910Z,80277.2
2016-06-16T01:36:51.926Z,80277.2
2016-06-16T01:37:01.944Z,80277.2
2016-06-16T01:37:11.944Z,80277.2
2016-06-16T01:37:21.944Z,80277.2
2016-06-16T01:37:31.944Z,80277.2
2016-06-16T01:37:41.944Z,81426.6
2016-06-16T01:37:51.960Z,81426.6
2016-06-16T01:38:02.011Z,81426.6
2016-06-16T01:38:11.964Z,81426.6
2016-06-16T01:38:21.980Z,80277.2
2016-06-16T01:38:31.995Z,81426.6
2016-06-16T01:38:42.042Z,81426.6
2016-06-16T01:38:51.995Z,82767.7
2016-06-16T01:39:02.294Z,83917.4
2016-06-16T01:39:12.013Z,85258.8
2016-06-16T01:39:22.013Z,86408.8
2016-06-16T01:39:32.013Z,86408.8
2016-06-16T01:39:42.044Z,86408.8
2016-06-16T01:39:52.029Z,86408.8
2016-06-16T01:40:02.047Z,86408.8
2016-06-16T01:40:12.047Z,86408.8
2016-06-16T01:40:22.047Z,85258.8
2016-06-16T01:40:32.391Z,85258.8
2016-06-16T01:40:42.250Z,83917.4
2016-06-16T01:40:52.078Z,83917.4
2016-06-16T01:41:02.254Z,83917.4
2016-06-16T01:41:12.207Z,83917.4
2016-06-16T01:41:22.786Z,82767.7
2016-06-16T01:41:32.770Z,82767.7
2016-06-16T01:41:42.114Z,81426.6
2016-06-16T01:41:52.114Z,81426.6
2016-06-16T01:42:02.132Z,81426.6
2016-06-16T01:42:12.132Z,82767.7
2016-06-16T01:42:22.117Z,81426.6
2016-06-16T01:42:32.132Z,81426.6
2016-06-16T01:42:42.148Z,82767.7
2016-06-16T01:42:52.148Z,81426.6
2016-06-16T01:43:02.167Z,82767.7
2016-06-16T01:43:12.151Z,82767.7
2016-06-16T01:43:22.026Z,82767.7
2016-06-16T01:43:32.167Z,82767.7
2016-06-16T01:43:42.463Z,82767.7
2016-06-16T01:43:52.182Z,82767.7
2016-06-16T01:44:02.216Z,64006.7
2016-06-16T01:44:12.201Z,82767.7
2016-06-16T01:44:22.201Z,83917.4
2016-06-16T01:44:32.201Z,82767.7
2016-06-16T01:44:42.216Z,82767.7
2016-06-16T01:44:52.263Z,82767.7
2016-06-16T01:45:02.235Z,85258.8
2016-06-16T01:45:12.235Z,86408.8
2016-06-16T01:45:22.298Z,89092.3
2016-06-16T01:45:32.329Z,90625.9
2016-06-16T01:45:42.251Z,90625.9
2016-06-16T01:45:52.282Z,91968.1
2016-06-16T01:46:02.269Z,91968.1
2016-06-16T01:46:12.316Z,91968.1
2016-06-16T01:46:22.160Z,91968.1
2016-06-16T01:46:32.301Z,93502.1
2016-06-16T01:46:42.285Z,95036.3
2016-06-16T01:46:52.316Z,95036.3
2016-06-16T01:47:02.304Z,95036.3
2016-06-16T01:47:12.382Z,96570.7
2016-06-16T01:47:22.304Z,98105.2
2016-06-16T01:47:32.429Z,99831.9
2016-06-16T01:47:42.319Z,99831.9
2016-06-16T01:47:52.350Z,103285.6
2016-06-16T01:48:02.369Z,105204.6
2016-06-16T01:48:12.385Z,105204.6
2016-06-16T01:48:22.353Z,106932
2016-06-16T01:48:32.385Z,106932
2016-06-16T01:48:42.369Z,110963.4
2016-06-16T01:48:52.369Z,113075.5
2016-06-16T01:49:02.373Z,115187.8
2016-06-16T01:49:12.389Z,117492.4
2016-06-16T01:49:22.389Z,117492.4
2016-06-16T01:49:32.420Z,117492.4
2016-06-16T01:49:42.404Z,117492.4
2016-06-16T01:49:52.420Z,117492.4
2016-06-16T01:50:02.406Z,119797.5
2016-06-16T01:50:12.422Z,117492.4
2016-06-16T01:50:22.422Z,117492.4
2016-06-16T01:50:32.453Z,117492.4
2016-06-16T01:50:42.438Z,115187.8
2016-06-16T01:50:52.438Z,115187.8
2016-06-16T01:51:02.456Z,115187.8
2016-06-16T01:51:12.487Z,115187.8
2016-06-16T01:51:22.581Z,113075.5
2016-06-16T01:51:32.472Z,113075.5
2016-06-16T01:51:42.472Z,110963.4
2016-06-16T01:51:52.487Z,110963.4
2016-06-16T01:52:02.554Z,77404.1
2016-06-16T01:52:12.491Z,110963.4
2016-06-16T01:52:22.523Z,108851.6
2016-06-16T01:52:32.507Z,105204.6
2016-06-16T01:52:42.570Z,105204.6
2016-06-16T01:52:52.523Z,105204.6
2016-06-16T01:53:02.838Z,103285.6
2016-06-16T01:53:12.541Z,74531.7
2016-06-16T01:53:22.541Z,73574.5
2016-06-16T01:53:32.619Z,101558.6
2016-06-16T01:53:42.573Z,99831.9
2016-06-16T01:53:52.557Z,99831.9
2016-06-16T01:54:12.668Z,98105.2
2016-06-16T01:54:22.700Z,96570.7
2016-06-16T01:54:42.700Z,95036.3
2016-06-16T01:55:02.624Z,91968.1
2016-06-16T01:55:12.624Z,91968.1
2016-06-16T01:55:22.609Z,90625.9
2016-06-16T01:55:32.656Z,89092.3
2016-06-16T01:55:42.656Z,87750.4
2016-06-16T01:55:52.624Z,86408.8
2016-06-16T01:56:02.691Z,85258.8
2016-06-16T01:56:12.691Z,83917.4
2016-06-16T01:56:23.597Z,83917.4
2016-06-16T01:56:32.925Z,82767.7
2016-06-16T01:56:42.675Z,82767.7
2016-06-16T01:56:52.675Z,81426.6
2016-06-16T01:57:02.678Z,81426.6
2016-06-16T01:57:12.710Z,80277.2
2016-06-16T01:57:22.756Z,80277.2
2016-06-16T01:57:32.725Z,80277.2
2016-06-16T01:57:42.710Z,80277.2
2016-06-16T01:57:52.725Z,79127.8
2016-06-16T01:58:02.728Z,79127.8
2016-06-16T01:58:12.713Z,78170.1
2016-06-16T01:58:22.728Z,77021.1
2016-06-16T01:58:32.728Z,76063.6
2016-06-16T01:58:42.728Z,74914.7
2016-06-16T01:58:52.744Z,73957.4
2016-06-16T01:59:02.747Z,73957.4
2016-06-16T01:59:12.762Z,73000.1
2016-06-16T01:59:22.762Z,72043
2016-06-16T01:59:32.762Z,71086
2016-06-16T01:59:42.778Z,71086
2016-06-16T01:59:52.856Z,70129
2016-06-16T02:00:02.797Z,69172.2
2016-06-16T02:00:12.859Z,69172.2
2016-06-16T02:00:22.797Z,69172.2
2016-06-16T02:00:32.812Z,70129
2016-06-16T02:00:42.797Z,71086
2016-06-16T02:00:52.844Z,71086
2016-06-16T02:01:02.847Z,72043
2016-06-16T02:01:12.893Z,73000.1
2016-06-16T02:01:22.862Z,73957.4
2016-06-16T02:01:32.893Z,74914.7